Reklaw, TX

7:51 AM CST on February 14, 2016 (GMT -0600)
Hwy 69 S | | Change Station
CLOSE
Current Station
Personal Weather Station
Location: Jacksonville, TX
Elevation: 518 ft
Nearby Weather Stations

Elev 518 ft 31.88 °N, 95.21 °W | Updated 17 seconds ago

Overcast
Overcast
56.7 °F
Feels Like 56.7 °F
N
2.0
Wind Variable Wind from SSW
Gusts 4.0 mph

Today
High -- | Low -- °F
--% Chance of Precip.
Yesterday
High -- | Low -- °F
Precip. -- in
Pressure 30.07 in
Visibility 10.0 miles
Clouds Overcast 1100 ft
Dew Point 53 °F
Humidity 88%
Rainfall 0.00 in
Snow Depth Not available.
7:03 AM 6:05 PM
Waxing Crescent, 42% visible
METAR KJSO 141335Z AUTO 17006KT 10SM OVC011 12/11 A3007 RMK AO2 T01300115
Pressure 30.07 in
Visibility 10.0 miles
Clouds Overcast 1100 ft
Dew Point 53 °F
Humidity 88%
Rainfall 0.00 in
Snow Depth Not available.
7:03 AM 6:05 PM
Waxing Crescent, 42% visible
METAR KJSO 141335Z AUTO 17006KT 10SM OVC011 12/11 A3007 RMK AO2 T01300115

10-Day Weather Forecast

Almanac

Astronomy

Feb. 14, 2016 Rise Set
Actual Time
Civil Twilight
Nautical Twilight
Astronomical Twilight
Moon
Length of Visible Light
Length of Day
Tomorrow will be .
, % of the Moon is Illuminated

Today's Extremes

State Highs State Lows

Community

WunderPhotos

Upload Photos

1,892,793 photos uploaded!

WunderBlog® & News

Nearby

Air Quality

  Air Quality AQ Index Pollutant
Not available.

Snow Depth

Station Depth Elevation

Earthquake Activity

City Distance Mag. Time & Date
Minimum magnitude displayed is 2.5.

Coastal Water Temperatures

Place Temperature

Stations

Nearby Weather Stations

Station Location Temp. Windchill Dew Point Humidity Wind Precip. Elev Updated Type
                   

Watches & Warnings

There are currently no watches in effect.